Time;durP1;ratioP1;P1;durP2;ratioP2;P2;SDS_P1;SDS_P2;PMS_P1;PMS_P2;Temp;Humidity;BMP_temperature;BMP_pressure;BME280_temperature;BME280_humidity;BME280_pressure;Samples;Min_cycle;Max_cycle;Signal;HPM_P1;HPM_P2
2023/06/21 16:26:37;;;;;;;47.92;7.05;;;;;;;27.33;59.63;98092.09;5076595;27;20389;-56
2023/06/21 16:29:03;;;;;;;35.15;6.07;;;;;;;27.64;58.88;98090.78;5083331;28;20033;-55
2023/06/21 16:31:28;;;;;;;68.00;9.88;;;;;;;27.73;58.79;98109.78;5079520;28;20834;-56
2023/06/21 16:33:56;;;;;;;25.02;5.50;;;;;;;27.66;58.75;98106.72;5096368;27;20051;-56
2023/06/21 16:36:22;;;;;;;58.58;9.02;;;;;;;27.80;58.24;98119.91;5100226;27;20023;-56
2023/06/21 16:38:47;;;;;;;95.05;12.45;;;;;;;27.75;57.40;98116.72;5100559;27;20019;-56
2023/06/21 16:41:13;;;;;;;30.45;5.95;;;;;;;27.88;56.83;98116.69;5100793;27;20069;-55
2023/06/21 16:43:38;;;;;;;29.77;6.18;;;;;;;28.18;57.47;98118.06;5100594;27;20142;-55
2023/06/21 16:46:04;;;;;;;53.55;8.20;;;;;;;27.98;56.11;98116.84;5085550;28;20012;-55
2023/06/21 16:48:29;;;;;;;66.70;9.50;;;;;;;27.97;56.11;98127.66;5100552;27;20523;-54
2023/06/21 16:50:54;;;;;;;34.13;6.15;;;;;;;28.15;56.61;98129.00;5102730;27;20030;-55
2023/06/21 16:53:20;;;;;;;35.63;6.70;;;;;;;28.07;56.80;98131.38;5092110;27;20024;-56
2023/06/21 16:55:45;;;;;;;36.22;6.72;;;;;;;28.10;57.02;98123.13;5038192;28;20094;-55
2023/06/21 16:58:11;;;;;;;34.55;6.22;;;;;;;27.94;56.18;98126.06;5040423;28;20044;-55
2023/06/21 17:00:36;;;;;;;62.95;9.63;;;;;;;27.98;54.87;98134.72;5037519;28;20593;-56
2023/06/21 17:03:01;;;;;;;43.63;7.10;;;;;;;27.91;55.18;98137.00;5037780;28;20021;-57
2023/06/21 17:05:27;;;;;;;65.30;12.32;;;;;;;27.90;55.67;98141.47;5036458;28;20214;-56
2023/06/21 17:07:52;;;;;;;34.40;6.53;;;;;;;27.75;54.13;98132.75;5039493;28;20048;-55
2023/06/21 17:10:19;;;;;;;34.35;6.35;;;;;;;27.63;53.71;98131.84;5037085;28;20056;-55
2023/06/21 17:12:44;;;;;;;30.25;6.28;;;;;;;27.65;54.46;98135.22;5038465;28;20024;-55
2023/06/21 17:15:11;;;;;;;39.35;6.85;;;;;;;27.61;54.44;98141.75;5037874;28;20028;-58
2023/06/21 17:17:39;;;;;;;80.70;11.13;;;;;;;27.70;54.54;98136.72;5036549;28;20028;-58
2023/06/21 17:20:05;;;;;;;50.63;8.82;;;;;;;27.66;56.06;98136.09;5039467;28;20134;-59
2023/06/21 17:22:31;;;;;;;80.95;11.52;;;;;;;27.68;56.63;98140.38;5036087;28;20070;-59
2023/06/21 17:24:56;;;;;;;55.72;8.55;;;;;;;27.51;53.59;98136.22;5040120;28;20536;-58
2023/06/21 17:27:22;;;;;;;53.58;8.20;;;;;;;27.71;54.74;98143.75;5036716;28;20036;-58
2023/06/21 17:29:49;;;;;;;39.30;6.93;;;;;;;27.66;54.92;98142.31;5039972;28;20029;-58
2023/06/21 17:32:14;;;;;;;49.42;7.78;;;;;;;27.37;54.49;98139.84;5039411;28;20037;-58
2023/06/21 17:34:40;;;;;;;61.80;8.98;;;;;;;27.50;54.87;98145.16;5037397;28;20995;-58
2023/06/21 17:37:05;;;;;;;44.92;7.78;;;;;;;27.57;55.11;98144.75;5028625;28;20033;-58
2023/06/21 17:39:31;;;;;;;110.72;13.30;;;;;;;27.51;56.72;98146.03;5023194;28;20060;-57
2023/06/21 17:41:57;;;;;;;64.57;8.77;;;;;;;27.37;57.17;98150.53;5025435;28;20041;-59
2023/06/21 17:44:22;;;;;;;55.38;7.90;;;;;;;27.42;57.29;98151.06;5024090;28;20151;-54
2023/06/21 17:46:47;;;;;;;52.92;8.00;;;;;;;27.29;56.51;98147.53;5023125;28;20085;-58
2023/06/21 17:49:13;;;;;;;55.53;7.93;;;;;;;27.23;56.03;98145.28;5026493;28;20025;-57
2023/06/21 17:51:38;;;;;;;104.38;12.40;;;;;;;27.26;55.75;98143.28;5023508;28;20558;-58
2023/06/21 17:54:04;;;;;;;62.60;8.27;;;;;;;27.25;57.67;98143.38;5023222;28;20268;-57
2023/06/21 17:56:30;;;;;;;102.32;12.18;;;;;;;27.17;58.51;98135.91;5020969;28;20183;-57
2023/06/21 17:58:55;;;;;;;53.17;8.07;;;;;;;27.00;57.77;98124.59;5024264;28;20064;-56
2023/06/21 18:01:21;;;;;;;61.63;8.27;;;;;;;26.97;56.45;98122.13;5023497;28;20135;-57
2023/06/21 18:03:46;;;;;;;55.78;8.02;;;;;;;26.91;55.76;98126.03;5024425;28;20021;-57
2023/06/21 18:06:12;;;;;;;62.05;8.48;;;;;;;26.84;56.78;98122.09;5020015;28;20037;-58
2023/06/21 18:08:37;;;;;;;115.80;13.35;;;;;;;26.97;58.55;98121.25;5024579;28;20106;-57
2023/06/21 18:11:03;;;;;;;61.75;8.23;;;;;;;26.80;58.69;98122.41;5025180;28;20041;-57
2023/06/21 18:13:29;;;;;;;85.28;9.85;;;;;;;26.87;58.50;98123.69;5020608;28;20033;-57
2023/06/21 18:15:54;;;;;;;71.88;8.65;;;;;;;26.61;59.04;98110.34;5022764;28;20037;-54
2023/06/21 18:18:22;;;;;;;52.05;7.55;;;;;;;26.29;59.42;98113.34;5020784;28;20453;-54
2023/06/21 18:20:48;;;;;;;60.05;7.93;;;;;;;26.44;59.67;98114.13;5029182;28;20473;-56
2023/06/21 18:23:14;;;;;;;68.90;9.00;;;;;;;26.28;59.64;98107.16;5023247;28;20029;-57
2023/06/21 18:25:40;;;;;;;97.80;11.75;;;;;;;26.18;59.63;98108.69;5021632;28;20108;-55
2023/06/21 18:28:05;;;;;;;50.95;7.22;;;;;;;26.30;61.37;98107.03;5022310;28;20108;-56
2023/06/21 18:30:31;;;;;;;101.15;11.73;;;;;;;26.22;60.49;98105.72;5021212;28;20116;-56
2023/06/21 18:32:56;;;;;;;52.15;7.97;;;;;;;25.97;60.55;98099.34;5023103;28;20028;-57
2023/06/21 18:35:21;;;;;;;65.43;8.50;;;;;;;25.86;61.21;98100.03;5022790;28;20113;-57
2023/06/21 18:37:47;;;;;;;62.33;8.38;;;;;;;25.77;61.60;98087.31;5020357;28;20516;-56
2023/06/21 18:40:12;;;;;;;49.45;7.55;;;;;;;25.78;62.15;98086.34;5022747;28;20032;-57
2023/06/21 18:42:38;;;;;;;91.07;10.90;;;;;;;25.64;61.75;98086.41;5021021;28;20402;-56
2023/06/21 18:45:05;;;;;;;60.28;8.10;;;;;;;25.56;62.49;98077.09;5023946;28;20021;-56
2023/06/21 18:47:31;;;;;;;90.85;10.68;;;;;;;25.54;63.75;98075.44;5021729;28;20080;-56
2023/06/21 18:49:57;;;;;;;72.63;9.10;;;;;;;25.43;65.15;98071.63;5025285;28;20387;-56
2023/06/21 18:52:22;;;;;;;61.78;8.55;;;;;;;25.44;66.97;98070.72;5023824;28;20597;-57
2023/06/21 18:54:47;;;;;;;67.95;8.20;;;;;;;25.37;68.28;98069.38;5022996;28;20276;-56
2023/06/21 18:57:13;;;;;;;56.50;7.95;;;;;;;25.19;68.11;98060.75;5023501;28;20111;-60
2023/06/21 18:59:38;;;;;;;100.38;11.70;;;;;;;24.91;69.28;98062.47;5024451;28;20135;-57
2023/06/21 19:02:04;;;;;;;74.35;9.25;;;;;;;24.64;71.48;98063.19;5024137;28;20090;-56
2023/06/21 19:04:30;;;;;;;91.18;10.70;;;;;;;24.52;72.03;98068.25;5021994;28;20040;-57
2023/06/21 19:06:56;;;;;;;58.65;7.72;;;;;;;24.44;72.95;98063.41;5025138;28;20033;-55
2023/06/21 19:09:21;;;;;;;59.08;8.35;;;;;;;24.23;72.62;98075.31;5024830;28;20040;-56
2023/06/21 19:11:47;;;;;;;80.15;10.27;;;;;;;24.18;73.38;98068.47;5021976;28;20029;-56
2023/06/21 19:14:12;;;;;;;63.65;8.80;;;;;;;24.12;75.84;98067.97;5025701;28;20033;-56
2023/06/21 19:16:38;;;;;;;111.90;12.15;;;;;;;24.09;76.58;98070.75;5020080;28;20060;-55
2023/06/21 19:19:04;;;;;;;83.45;11.05;;;;;;;23.93;78.75;98079.59;5024349;28;20051;-56
2023/06/21 19:21:29;;;;;;;75.70;9.80;;;;;;;23.90;80.91;98077.97;5021306;28;20107;-55
2023/06/21 19:23:55;;;;;;;53.67;7.97;;;;;;;23.77;84.12;98084.94;5022413;28;20451;-56
2023/06/21 19:26:20;;;;;;;70.72;9.43;;;;;;;23.78;84.04;98090.16;5022424;28;20404;-54
2023/06/21 19:28:46;;;;;;;107.43;12.50;;;;;;;23.69;86.47;98085.38;5021808;28;20033;-57
2023/06/21 19:31:11;;;;;;;46.85;7.50;;;;;;;23.57;87.99;98099.31;5024181;28;20540;-58
2023/06/21 19:33:37;;;;;;;116.03;12.38;;;;;;;23.50;86.74;98099.63;5015524;28;20036;-57
2023/06/21 19:36:02;;;;;;;94.78;10.98;;;;;;;23.41;87.38;98100.16;5021230;28;20644;-59
2023/06/21 19:38:28;;;;;;;81.32;10.10;;;;;;;23.38;88.75;98110.94;5021030;28;20036;-56
2023/06/21 19:40:54;;;;;;;63.75;9.07;;;;;;;23.32;92.40;98116.53;5023385;28;20278;-58
2023/06/21 19:43:19;;;;;;;68.75;9.23;;;;;;;23.31;95.55;98120.13;5022751;28;20036;-58
2023/06/21 19:45:45;;;;;;;105.75;12.95;;;;;;;23.19;98.08;98111.88;5020905;28;20045;-58
2023/06/21 19:48:11;;;;;;;67.53;9.65;;;;;;;22.92;100.00;98109.75;5021576;28;20083;-57
2023/06/21 19:50:37;;;;;;;111.72;13.07;;;;;;;22.75;100.00;98116.78;5020748;28;20091;-58
2023/06/21 19:53:03;;;;;;;66.90;9.35;;;;;;;22.74;100.00;98111.56;5022421;28;20033;-55
2023/06/21 19:55:28;;;;;;;77.95;10.02;;;;;;;22.80;100.00;98116.56;5020314;28;20098;-57
2023/06/21 19:57:54;;;;;;;72.10;9.57;;;;;;;22.74;100.00;98116.88;5021309;28;20131;-58
2023/06/21 20:00:21;;;;;;;63.03;9.00;;;;;;;22.74;100.00;98112.44;5021863;28;20025;-60
2023/06/21 20:02:47;;;;;;;107.78;13.38;;;;;;;22.75;100.00;98126.56;5020831;28;20043;-57
2023/06/21 20:05:14;;;;;;;67.55;9.57;;;;;;;22.73;100.00;98136.38;5020460;28;20333;-58
2023/06/21 20:07:39;;;;;;;118.35;13.85;;;;;;;22.74;100.00;98138.06;5019562;28;20044;-58
2023/06/21 20:10:05;;;;;;;66.85;9.80;;;;;;;22.72;100.00;98140.81;5023062;28;20382;-58
2023/06/21 20:12:31;;;;;;;72.28;9.45;;;;;;;22.63;99.96;98154.53;5020607;28;20136;-57
2023/06/21 20:14:56;;;;;;;59.35;9.15;;;;;;;22.62;100.00;98155.47;5037383;28;20028;-57
2023/06/21 20:17:22;;;;;;;53.40;8.27;;;;;;;22.59;100.00;98171.50;5020123;28;20392;-56
2023/06/21 20:19:47;;;;;;;94.13;12.57;;;;;;;22.54;100.00;98168.22;5022112;28;20029;-58
2023/06/21 20:22:14;;;;;;;75.80;10.02;;;;;;;22.39;100.00;98167.19;5021967;28;20121;-57
2023/06/21 20:24:40;;;;;;;102.65;11.90;;;;;;;22.16;100.00;98170.00;5020506;28;20502;-59
2023/06/21 20:27:06;;;;;;;61.13;9.00;;;;;;;22.06;100.00;98181.97;5025456;28;20045;-61
2023/06/21 20:29:31;;;;;;;63.50;9.25;;;;;;;22.21;100.00;98186.56;5038270;28;20032;-57
2023/06/21 20:31:57;;;;;;;61.67;9.15;;;;;;;22.26;100.00;98182.81;5023117;28;20081;-60
2023/06/21 20:34:22;;;;;;;42.88;7.75;;;;;;;22.30;100.00;98189.69;5024522;28;20033;-61
2023/06/21 20:36:48;;;;;;;92.40;11.75;;;;;;;22.13;100.00;98195.78;5022417;28;20033;-58
2023/06/21 20:39:16;;;;;;;47.75;7.78;;;;;;;22.08;100.00;98203.97;5023821;28;20388;-57
2023/06/21 20:41:43;;;;;;;98.32;12.52;;;;;;;22.11;100.00;98209.97;5020769;28;20067;-58
2023/06/21 20:44:14;;;;;;;50.20;8.20;;;;;;;22.07;100.00;98213.69;5022577;28;20884;-58
2023/06/21 20:46:40;;;;;;;109.63;12.70;;;;;;;22.07;100.00;98215.47;5021460;28;20095;-57
2023/06/21 20:49:06;;;;;;;58.42;8.68;;;;;;;22.05;100.00;98220.00;5024829;28;20305;-57
2023/06/21 20:51:31;;;;;;;73.18;9.43;;;;;;;21.94;100.00;98210.75;5021760;28;20044;-59
2023/06/21 20:53:57;;;;;;;57.75;8.65;;;;;;;21.92;100.00;98207.31;5028168;28;20033;-57
2023/06/21 20:56:26;;;;;;;75.28;9.80;;;;;;;21.97;100.00;98210.59;5020374;28;20040;-56
2023/06/21 20:58:54;;;;;;;108.93;11.88;;;;;;;21.82;100.00;98208.69;5021263;28;20678;-56
2023/06/21 21:01:21;;;;;;;79.80;10.23;;;;;;;21.85;100.00;98221.75;5021421;28;20041;-57
2023/06/21 21:03:46;;;;;;;124.78;13.60;;;;;;;21.91;100.00;98218.84;5020284;28;20025;-58
2023/06/21 21:06:11;;;;;;;59.95;8.88;;;;;;;21.96;100.00;98208.91;5022087;28;20392;-57
2023/06/21 21:08:37;;;;;;;95.53;11.73;;;;;;;21.78;100.00;98212.41;5019804;28;20029;-56
2023/06/21 21:11:04;;;;;;;86.57;10.52;;;;;;;21.81;100.00;98212.25;5019723;28;20034;-57
2023/06/21 21:13:30;;;;;;;86.78;10.35;;;;;;;21.73;100.00;98212.59;5024321;28;20039;-57
2023/06/21 21:15:55;;;;;;;94.32;11.25;;;;;;;21.61;100.00;98207.84;5024478;28;20041;-57
2023/06/21 21:18:20;;;;;;;86.18;10.52;;;;;;;21.41;100.00;98205.16;5025046;28;20029;-56
2023/06/21 21:20:46;;;;;;;97.38;12.23;;;;;;;21.39;100.00;98196.44;5025747;28;20068;-56
2023/06/21 21:23:11;;;;;;;49.92;8.18;;;;;;;21.35;100.00;98197.50;5024975;28;20087;-57
